Terminal Aerodrome Forecast
Issued by NWS

Current Version | Previous Version | Text Only | Print | Product List | Glossary On
Versions: 1 2 3 4 5 6 7 8 9 10 11 12 13 14 15 16 17 18 19 20
309
FTUS43 KGRB 220520
TAFMTW
TAF
KMTW 220520Z 2206/2306 33004KT P6SM BKN250
     FM221100 05005KT P6SM OVC090
     FM221800 09008KT P6SM BKN070
     FM230400 13009G15KT P6SM OVC050 WS020/15035KT=

USA.gov is the U.S. government's official web portal to all federal, state and local government web resources and services.